Keith, United Kingdom
Current Conditions -  °F | °C
As of 9:50 PM on Wednesday 28 Jan 2015 (Local Time) from EGQS Reporting Station
Few Clouds Few Clouds  
Wind Chill: 21°   Ceiling: Unl
Heat Index: 32°   Visibility: 6mi
Dew Point: 27°   Wind: 17mph
Humidity: 80%   Direction: 260°W
Pressure: 28.91"   Gusts: NA
Location:  57.54°N, 2.95°W
Report Text: EGQS 282150Z 26015KT 9999 FEW016CB M00/M03 Q0979 BLU
Loading
Personal Weather Stations






























Interactive Weather Map New forecast layout! Learn more

10-Day Weather Forecast

Advertisements
Track Severe Weather on mobile